Terminal Aerodrome Forecast
Issued by NWS

Home | Current Version | Previous Version | Text Only | Print | Product List | Glossary On
Versions: 1 2 3 4 5 6 7 8 9 10 11 12 13 14 15 16 17 18 19 20 21 22 23
000
FTUS45 KCYS 302326
TAFLAR
TAF
KLAR 302326Z 3100/3124 VRB06KT P6SM VCSH BKN050 OVC070
     FM310200 15007KT P6SM -SHRA OVC050
     FM310800 14010KT 5SM BR BKN015 OVC025
     FM311200 15015G22KT 2SM -SN BR BKN003 OVC007
     FM311800 13018G25KT 1/2SM SN FG OVC003=

USA.gov is the U.S. government's official web portal to all federal, state and local government web resources and services.